sensor_id;sensor_type;location;lat;lon;timestamp;P1;durP1;ratioP1;P2;durP2;ratioP2
79365;SDS011;68833;53.160;17.920;2023-05-10T00:00:31;10.50;;;5.30;;
79365;SDS011;68833;53.160;17.920;2023-05-10T00:03:09;11.40;;;5.60;;
79365;SDS011;68833;53.160;17.920;2023-05-10T00:05:37;8.00;;;4.90;;
79365;SDS011;68833;53.160;17.920;2023-05-10T00:08:05;10.90;;;5.40;;
79365;SDS011;68833;53.160;17.920;2023-05-10T00:10:33;14.00;;;5.90;;
79365;SDS011;68833;53.160;17.920;2023-05-10T00:13:01;12.90;;;7.20;;
79365;SDS011;68833;53.160;17.920;2023-05-10T00:15:28;12.50;;;5.90;;
79365;SDS011;68833;53.160;17.920;2023-05-10T00:17:58;16.90;;;6.50;;
79365;SDS011;68833;53.160;17.920;2023-05-10T00:20:25;12.20;;;6.30;;
79365;SDS011;68833;53.160;17.920;2023-05-10T00:22:53;16.40;;;7.90;;
79365;SDS011;68833;53.160;17.920;2023-05-10T00:25:20;11.30;;;5.50;;
79365;SDS011;68833;53.160;17.920;2023-05-10T00:27:48;11.20;;;6.40;;
79365;SDS011;68833;53.160;17.920;2023-05-10T00:30:16;9.30;;;5.20;;
79365;SDS011;68833;53.160;17.920;2023-05-10T00:32:46;8.00;;;4.50;;
79365;SDS011;68833;53.160;17.920;2023-05-10T00:35:18;6.90;;;3.90;;
79365;SDS011;68833;53.160;17.920;2023-05-10T00:37:58;9.00;;;4.30;;
79365;SDS011;68833;53.160;17.920;2023-05-10T00:40:28;8.10;;;4.40;;
79365;SDS011;68833;53.160;17.920;2023-05-10T00:43:03;5.00;;;3.50;;
79365;SDS011;68833;53.160;17.920;2023-05-10T00:45:32;7.20;;;4.90;;
79365;SDS011;68833;53.160;17.920;2023-05-10T00:48:01;6.80;;;3.90;;
79365;SDS011;68833;53.160;17.920;2023-05-10T00:50:30;9.10;;;4.00;;
79365;SDS011;68833;53.160;17.920;2023-05-10T00:53:05;6.90;;;3.90;;
79365;SDS011;68833;53.160;17.920;2023-05-10T00:55:36;6.50;;;3.60;;
79365;SDS011;68833;53.160;17.920;2023-05-10T00:58:04;8.40;;;4.10;;
79365;SDS011;68833;53.160;17.920;2023-05-10T01:00:33;5.80;;;3.50;;
79365;SDS011;68833;53.160;17.920;2023-05-10T01:03:01;12.20;;;6.40;;
79365;SDS011;68833;53.160;17.920;2023-05-10T01:05:31;6.70;;;3.80;;
79365;SDS011;68833;53.160;17.920;2023-05-10T01:08:07;7.30;;;3.40;;
79365;SDS011;68833;53.160;17.920;2023-05-10T01:10:38;6.40;;;4.10;;
79365;SDS011;68833;53.160;17.920;2023-05-10T01:13:07;6.40;;;3.80;;
79365;SDS011;68833;53.160;17.920;2023-05-10T01:15:35;4.90;;;3.30;;
79365;SDS011;68833;53.160;17.920;2023-05-10T01:18:04;5.40;;;3.50;;
79365;SDS011;68833;53.160;17.920;2023-05-10T01:20:39;5.90;;;3.40;;
79365;SDS011;68833;53.160;17.920;2023-05-10T01:23:17;5.50;;;3.90;;
79365;SDS011;68833;53.160;17.920;2023-05-10T01:39:10;5.70;;;3.70;;
79365;SDS011;68833;53.160;17.920;2023-05-10T01:42:16;6.30;;;3.20;;
79365;SDS011;68833;53.160;17.920;2023-05-10T01:44:52;8.20;;;4.00;;
79365;SDS011;68833;53.160;17.920;2023-05-10T01:47:44;5.60;;;3.50;;
79365;SDS011;68833;53.160;17.920;2023-05-10T01:50:22;5.90;;;3.30;;
79365;SDS011;68833;53.160;17.920;2023-05-10T01:52:57;5.90;;;3.60;;
79365;SDS011;68833;53.160;17.920;2023-05-10T01:55:49;7.30;;;4.90;;
79365;SDS011;68833;53.160;17.920;2023-05-10T01:58:22;6.50;;;3.50;;
79365;SDS011;68833;53.160;17.920;2023-05-10T02:00:53;8.20;;;3.90;;
79365;SDS011;68833;53.160;17.920;2023-05-10T02:03:22;5.60;;;4.20;;
79365;SDS011;68833;53.160;17.920;2023-05-10T02:06:13;5.00;;;3.40;;
79365;SDS011;68833;53.160;17.920;2023-05-10T02:08:43;8.60;;;3.90;;
79365;SDS011;68833;53.160;17.920;2023-05-10T02:11:17;5.60;;;3.80;;
79365;SDS011;68833;53.160;17.920;2023-05-10T02:13:49;7.80;;;4.10;;
79365;SDS011;68833;53.160;17.920;2023-05-10T02:16:19;8.70;;;4.50;;
79365;SDS011;68833;53.160;17.920;2023-05-10T02:19:18;6.50;;;4.10;;
79365;SDS011;68833;53.160;17.920;2023-05-10T02:21:59;5.30;;;3.90;;
79365;SDS011;68833;53.160;17.920;2023-05-10T02:24:33;5.90;;;3.50;;
79365;SDS011;68833;53.160;17.920;2023-05-10T02:27:06;6.70;;;3.80;;
79365;SDS011;68833;53.160;17.920;2023-05-10T02:29:45;8.00;;;4.10;;
79365;SDS011;68833;53.160;17.920;2023-05-10T02:32:23;7.40;;;4.30;;
79365;SDS011;68833;53.160;17.920;2023-05-10T02:34:53;6.20;;;4.40;;
79365;SDS011;68833;53.160;17.920;2023-05-10T02:37:23;6.70;;;4.10;;
79365;SDS011;68833;53.160;17.920;2023-05-10T02:39:57;6.10;;;3.80;;
79365;SDS011;68833;53.160;17.920;2023-05-10T02:42:46;8.30;;;4.60;;
79365;SDS011;68833;53.160;17.920;2023-05-10T02:45:59;6.00;;;4.10;;
79365;SDS011;68833;53.160;17.920;2023-05-10T02:49:04;8.10;;;4.90;;
79365;SDS011;68833;53.160;17.920;2023-05-10T02:51:37;6.70;;;4.30;;
79365;SDS011;68833;53.160;17.920;2023-05-10T02:54:15;6.40;;;3.90;;
79365;SDS011;68833;53.160;17.920;2023-05-10T02:57:00;8.20;;;4.70;;
79365;SDS011;68833;53.160;17.920;2023-05-10T02:59:33;7.90;;;4.60;;
79365;SDS011;68833;53.160;17.920;2023-05-10T03:02:02;7.50;;;4.40;;
79365;SDS011;68833;53.160;17.920;2023-05-10T03:04:32;9.80;;;5.20;;
79365;SDS011;68833;53.160;17.920;2023-05-10T03:07:09;8.60;;;5.10;;
79365;SDS011;68833;53.160;17.920;2023-05-10T03:09:37;9.90;;;4.30;;
79365;SDS011;68833;53.160;17.920;2023-05-10T03:18:33;9.20;;;5.30;;
79365;SDS011;68833;53.160;17.920;2023-05-10T03:21:11;6.60;;;4.30;;
79365;SDS011;68833;53.160;17.920;2023-05-10T03:23:51;10.80;;;6.90;;
79365;SDS011;68833;53.160;17.920;2023-05-10T03:26:32;9.50;;;5.20;;
79365;SDS011;68833;53.160;17.920;2023-05-10T03:29:08;6.90;;;4.00;;
79365;SDS011;68833;53.160;17.920;2023-05-10T03:31:58;7.30;;;4.00;;
79365;SDS011;68833;53.160;17.920;2023-05-10T03:34:35;13.30;;;7.50;;
79365;SDS011;68833;53.160;17.920;2023-05-10T03:37:12;40.90;;;17.80;;
79365;SDS011;68833;53.160;17.920;2023-05-10T03:39:46;76.00;;;25.60;;
79365;SDS011;68833;53.160;17.920;2023-05-10T03:42:21;62.90;;;20.70;;
79365;SDS011;68833;53.160;17.920;2023-05-10T03:44:52;36.60;;;14.70;;
79365;SDS011;68833;53.160;17.920;2023-05-10T03:50:00;24.70;;;11.20;;
79365;SDS011;68833;53.160;17.920;2023-05-10T03:52:40;22.50;;;9.70;;
79365;SDS011;68833;53.160;17.920;2023-05-10T03:55:14;25.90;;;13.90;;
79365;SDS011;68833;53.160;17.920;2023-05-10T03:57:43;19.20;;;8.90;;
79365;SDS011;68833;53.160;17.920;2023-05-10T04:00:11;66.80;;;26.80;;
79365;SDS011;68833;53.160;17.920;2023-05-10T04:02:42;17.60;;;8.30;;
79365;SDS011;68833;53.160;17.920;2023-05-10T04:05:14;23.20;;;9.30;;
79365;SDS011;68833;53.160;17.920;2023-05-10T04:07:42;20.00;;;9.40;;
79365;SDS011;68833;53.160;17.920;2023-05-10T04:10:11;13.30;;;6.40;;
79365;SDS011;68833;53.160;17.920;2023-05-10T04:12:39;11.60;;;5.20;;
79365;SDS011;68833;53.160;17.920;2023-05-10T04:15:06;8.60;;;5.50;;
79365;SDS011;68833;53.160;17.920;2023-05-10T04:17:35;8.70;;;4.50;;
79365;SDS011;68833;53.160;17.920;2023-05-10T04:20:08;11.20;;;5.60;;
79365;SDS011;68833;53.160;17.920;2023-05-10T04:22:36;11.40;;;6.50;;
79365;SDS011;68833;53.160;17.920;2023-05-10T04:25:04;9.10;;;5.70;;
79365;SDS011;68833;53.160;17.920;2023-05-10T04:27:34;11.00;;;5.40;;
79365;SDS011;68833;53.160;17.920;2023-05-10T04:30:02;6.00;;;3.70;;
79365;SDS011;68833;53.160;17.920;2023-05-10T04:32:30;7.00;;;3.80;;
79365;SDS011;68833;53.160;17.920;2023-05-10T04:34:57;9.90;;;4.30;;
79365;SDS011;68833;53.160;17.920;2023-05-10T04:37:27;5.90;;;3.80;;
79365;SDS011;68833;53.160;17.920;2023-05-10T04:39:59;7.40;;;4.90;;
79365;SDS011;68833;53.160;17.920;2023-05-10T04:42:26;7.50;;;4.20;;
79365;SDS011;68833;53.160;17.920;2023-05-10T04:44:55;8.30;;;4.40;;
79365;SDS011;68833;53.160;17.920;2023-05-10T04:47:25;8.30;;;4.30;;
79365;SDS011;68833;53.160;17.920;2023-05-10T04:49:52;5.80;;;4.00;;
79365;SDS011;68833;53.160;17.920;2023-05-10T04:52:19;10.00;;;5.10;;
79365;SDS011;68833;53.160;17.920;2023-05-10T04:54:46;11.40;;;5.60;;
79365;SDS011;68833;53.160;17.920;2023-05-10T04:57:13;6.50;;;4.00;;
79365;SDS011;68833;53.160;17.920;2023-05-10T04:59:40;10.50;;;5.20;;
79365;SDS011;68833;53.160;17.920;2023-05-10T05:02:10;15.70;;;8.80;;
79365;SDS011;68833;53.160;17.920;2023-05-10T05:04:38;8.50;;;4.60;;
79365;SDS011;68833;53.160;17.920;2023-05-10T05:07:05;9.10;;;3.90;;
79365;SDS011;68833;53.160;17.920;2023-05-10T05:09:32;6.40;;;4.30;;
79365;SDS011;68833;53.160;17.920;2023-05-10T05:12:00;7.30;;;3.80;;
79365;SDS011;68833;53.160;17.920;2023-05-10T05:14:27;5.90;;;4.00;;
79365;SDS011;68833;53.160;17.920;2023-05-10T05:16:54;7.00;;;3.60;;
79365;SDS011;68833;53.160;17.920;2023-05-10T05:19:22;9.60;;;4.00;;
79365;SDS011;68833;53.160;17.920;2023-05-10T05:21:49;7.70;;;3.50;;
79365;SDS011;68833;53.160;17.920;2023-05-10T05:24:17;7.80;;;3.30;;
79365;SDS011;68833;53.160;17.920;2023-05-10T05:26:44;8.00;;;4.20;;
79365;SDS011;68833;53.160;17.920;2023-05-10T05:29:16;6.50;;;3.30;;
79365;SDS011;68833;53.160;17.920;2023-05-10T05:31:44;5.50;;;3.30;;
79365;SDS011;68833;53.160;17.920;2023-05-10T05:34:11;4.20;;;3.00;;
79365;SDS011;68833;53.160;17.920;2023-05-10T05:36:46;6.70;;;3.30;;
79365;SDS011;68833;53.160;17.920;2023-05-10T05:39:18;7.80;;;3.70;;
79365;SDS011;68833;53.160;17.920;2023-05-10T05:42:05;5.90;;;3.30;;
79365;SDS011;68833;53.160;17.920;2023-05-10T05:44:44;4.50;;;3.00;;
79365;SDS011;68833;53.160;17.920;2023-05-10T05:47:23;7.20;;;3.40;;
79365;SDS011;68833;53.160;17.920;2023-05-10T05:49:50;7.60;;;3.20;;
79365;SDS011;68833;53.160;17.920;2023-05-10T05:52:17;7.70;;;3.40;;
79365;SDS011;68833;53.160;17.920;2023-05-10T05:54:44;6.90;;;3.30;;
79365;SDS011;68833;53.160;17.920;2023-05-10T05:57:14;4.70;;;2.40;;
79365;SDS011;68833;53.160;17.920;2023-05-10T05:59:44;6.40;;;3.80;;
79365;SDS011;68833;53.160;17.920;2023-05-10T06:02:14;5.90;;;3.40;;
79365;SDS011;68833;53.160;17.920;2023-05-10T06:07:08;4.60;;;2.80;;
79365;SDS011;68833;53.160;17.920;2023-05-10T06:09:35;6.10;;;3.20;;
79365;SDS011;68833;53.160;17.920;2023-05-10T06:12:02;6.30;;;3.20;;
79365;SDS011;68833;53.160;17.920;2023-05-10T06:14:29;6.90;;;3.40;;
79365;SDS011;68833;53.160;17.920;2023-05-10T06:16:59;6.70;;;3.60;;
79365;SDS011;68833;53.160;17.920;2023-05-10T06:19:26;5.30;;;3.50;;
79365;SDS011;68833;53.160;17.920;2023-05-10T06:21:53;5.40;;;3.10;;
79365;SDS011;68833;53.160;17.920;2023-05-10T06:24:20;5.30;;;2.80;;
79365;SDS011;68833;53.160;17.920;2023-05-10T06:26:48;4.60;;;2.80;;
79365;SDS011;68833;53.160;17.920;2023-05-10T06:29:16;7.40;;;2.80;;
79365;SDS011;68833;53.160;17.920;2023-05-10T06:31:44;6.40;;;2.70;;
79365;SDS011;68833;53.160;17.920;2023-05-10T06:34:11;10.00;;;2.70;;
79365;SDS011;68833;53.160;17.920;2023-05-10T06:36:41;7.00;;;3.10;;
79365;SDS011;68833;53.160;17.920;2023-05-10T06:39:08;3.90;;;2.50;;
79365;SDS011;68833;53.160;17.920;2023-05-10T06:44:04;4.10;;;2.70;;
79365;SDS011;68833;53.160;17.920;2023-05-10T06:46:32;4.70;;;2.90;;
79365;SDS011;68833;53.160;17.920;2023-05-10T06:48:59;4.50;;;2.90;;
79365;SDS011;68833;53.160;17.920;2023-05-10T06:51:26;5.60;;;3.10;;
79365;SDS011;68833;53.160;17.920;2023-05-10T06:53:53;7.00;;;4.20;;
79365;SDS011;68833;53.160;17.920;2023-05-10T06:56:20;4.00;;;2.80;;
79365;SDS011;68833;53.160;17.920;2023-05-10T06:58:48;7.20;;;2.80;;
79365;SDS011;68833;53.160;17.920;2023-05-10T07:01:15;4.00;;;2.30;;
79365;SDS011;68833;53.160;17.920;2023-05-10T07:03:42;4.70;;;2.60;;
79365;SDS011;68833;53.160;17.920;2023-05-10T07:06:09;5.60;;;2.60;;
79365;SDS011;68833;53.160;17.920;2023-05-10T07:08:37;3.90;;;2.50;;
79365;SDS011;68833;53.160;17.920;2023-05-10T07:11:05;7.10;;;2.80;;
79365;SDS011;68833;53.160;17.920;2023-05-10T07:13:37;4.50;;;3.00;;
79365;SDS011;68833;53.160;17.920;2023-05-10T07:16:05;3.00;;;2.40;;
79365;SDS011;68833;53.160;17.920;2023-05-10T07:18:33;2.90;;;2.20;;
79365;SDS011;68833;53.160;17.920;2023-05-10T07:21:00;5.10;;;2.60;;
79365;SDS011;68833;53.160;17.920;2023-05-10T07:23:28;4.20;;;2.40;;
79365;SDS011;68833;53.160;17.920;2023-05-10T07:25:55;3.70;;;2.70;;
79365;SDS011;68833;53.160;17.920;2023-05-10T07:28:23;2.90;;;2.20;;
79365;SDS011;68833;53.160;17.920;2023-05-10T07:30:50;4.30;;;2.30;;
79365;SDS011;68833;53.160;17.920;2023-05-10T07:33:17;3.40;;;2.40;;
79365;SDS011;68833;53.160;17.920;2023-05-10T07:35:45;5.70;;;2.80;;
79365;SDS011;68833;53.160;17.920;2023-05-10T07:38:12;7.10;;;3.30;;
79365;SDS011;68833;53.160;17.920;2023-05-10T07:40:39;7.90;;;2.80;;
79365;SDS011;68833;53.160;17.920;2023-05-10T07:43:06;3.90;;;2.30;;
79365;SDS011;68833;53.160;17.920;2023-05-10T07:45:33;6.40;;;2.50;;
79365;SDS011;68833;53.160;17.920;2023-05-10T07:48:01;5.20;;;3.00;;
79365;SDS011;68833;53.160;17.920;2023-05-10T07:50:29;5.30;;;2.50;;
79365;SDS011;68833;53.160;17.920;2023-05-10T07:52:56;5.00;;;3.20;;
79365;SDS011;68833;53.160;17.920;2023-05-10T07:55:24;7.20;;;2.50;;
79365;SDS011;68833;53.160;17.920;2023-05-10T07:57:51;4.80;;;2.30;;
79365;SDS011;68833;53.160;17.920;2023-05-10T08:00:19;6.60;;;2.70;;
79365;SDS011;68833;53.160;17.920;2023-05-10T08:02:47;4.40;;;2.90;;
79365;SDS011;68833;53.160;17.920;2023-05-10T08:05:14;5.90;;;2.90;;
79365;SDS011;68833;53.160;17.920;2023-05-10T08:07:41;3.80;;;2.50;;
79365;SDS011;68833;53.160;17.920;2023-05-10T08:10:09;5.90;;;2.90;;
79365;SDS011;68833;53.160;17.920;2023-05-10T08:12:37;5.60;;;2.40;;
79365;SDS011;68833;53.160;17.920;2023-05-10T08:15:08;3.60;;;2.00;;
79365;SDS011;68833;53.160;17.920;2023-05-10T08:17:35;5.30;;;2.80;;
79365;SDS011;68833;53.160;17.920;2023-05-10T08:20:03;3.70;;;2.10;;
79365;SDS011;68833;53.160;17.920;2023-05-10T08:22:30;4.40;;;2.30;;
79365;SDS011;68833;53.160;17.920;2023-05-10T08:24:57;4.10;;;2.10;;
79365;SDS011;68833;53.160;17.920;2023-05-10T08:27:24;4.60;;;2.30;;
79365;SDS011;68833;53.160;17.920;2023-05-10T08:29:51;3.20;;;2.20;;
79365;SDS011;68833;53.160;17.920;2023-05-10T08:32:18;5.60;;;2.60;;
79365;SDS011;68833;53.160;17.920;2023-05-10T08:34:45;4.40;;;2.30;;
79365;SDS011;68833;53.160;17.920;2023-05-10T08:37:12;4.20;;;2.70;;
79365;SDS011;68833;53.160;17.920;2023-05-10T08:39:39;7.40;;;2.50;;
79365;SDS011;68833;53.160;17.920;2023-05-10T08:42:07;6.90;;;2.00;;
79365;SDS011;68833;53.160;17.920;2023-05-10T08:44:36;3.20;;;2.20;;
79365;SDS011;68833;53.160;17.920;2023-05-10T08:47:06;4.30;;;2.40;;
79365;SDS011;68833;53.160;17.920;2023-05-10T08:49:34;4.70;;;2.80;;
79365;SDS011;68833;53.160;17.920;2023-05-10T08:52:03;7.40;;;2.70;;
79365;SDS011;68833;53.160;17.920;2023-05-10T08:54:32;5.90;;;2.40;;
79365;SDS011;68833;53.160;17.920;2023-05-10T08:57:00;4.00;;;2.50;;
79365;SDS011;68833;53.160;17.920;2023-05-10T08:59:27;3.90;;;2.50;;
79365;SDS011;68833;53.160;17.920;2023-05-10T09:01:55;3.20;;;2.40;;
79365;SDS011;68833;53.160;17.920;2023-05-10T09:04:25;5.80;;;3.00;;
79365;SDS011;68833;53.160;17.920;2023-05-10T09:06:53;5.90;;;2.60;;
79365;SDS011;68833;53.160;17.920;2023-05-10T09:09:21;4.50;;;1.70;;
79365;SDS011;68833;53.160;17.920;2023-05-10T09:11:48;5.70;;;2.70;;
79365;SDS011;68833;53.160;17.920;2023-05-10T09:14:15;4.20;;;1.90;;
79365;SDS011;68833;53.160;17.920;2023-05-10T09:16:44;5.50;;;2.80;;
79365;SDS011;68833;53.160;17.920;2023-05-10T09:19:11;3.70;;;1.80;;
79365;SDS011;68833;53.160;17.920;2023-05-10T09:21:38;4.50;;;2.50;;
79365;SDS011;68833;53.160;17.920;2023-05-10T09:24:06;3.10;;;2.40;;
79365;SDS011;68833;53.160;17.920;2023-05-10T09:26:34;4.40;;;2.10;;
79365;SDS011;68833;53.160;17.920;2023-05-10T09:29:02;5.60;;;2.30;;
79365;SDS011;68833;53.160;17.920;2023-05-10T09:31:48;5.80;;;2.50;;
79365;SDS011;68833;53.160;17.920;2023-05-10T09:34:32;2.90;;;2.00;;
79365;SDS011;68833;53.160;17.920;2023-05-10T09:37:01;3.90;;;2.30;;
79365;SDS011;68833;53.160;17.920;2023-05-10T09:39:34;6.60;;;2.40;;
79365;SDS011;68833;53.160;17.920;2023-05-10T09:42:04;3.30;;;1.80;;
79365;SDS011;68833;53.160;17.920;2023-05-10T09:44:35;7.00;;;2.40;;
79365;SDS011;68833;53.160;17.920;2023-05-10T09:47:07;5.40;;;2.30;;
79365;SDS011;68833;53.160;17.920;2023-05-10T09:49:34;3.70;;;2.20;;
79365;SDS011;68833;53.160;17.920;2023-05-10T09:52:02;7.00;;;2.60;;
79365;SDS011;68833;53.160;17.920;2023-05-10T09:54:30;4.00;;;2.80;;
79365;SDS011;68833;53.160;17.920;2023-05-10T09:56:58;7.50;;;3.10;;
79365;SDS011;68833;53.160;17.920;2023-05-10T09:59:25;4.20;;;2.50;;
79365;SDS011;68833;53.160;17.920;2023-05-10T10:03:42;3.00;;;2.20;;
79365;SDS011;68833;53.160;17.920;2023-05-10T10:06:09;3.90;;;2.70;;
79365;SDS011;68833;53.160;17.920;2023-05-10T10:08:37;5.90;;;2.40;;
79365;SDS011;68833;53.160;17.920;2023-05-10T10:11:04;5.40;;;2.40;;
79365;SDS011;68833;53.160;17.920;2023-05-10T10:13:31;5.00;;;2.80;;
79365;SDS011;68833;53.160;17.920;2023-05-10T10:15:59;4.40;;;2.50;;
79365;SDS011;68833;53.160;17.920;2023-05-10T10:18:26;5.70;;;2.60;;
79365;SDS011;68833;53.160;17.920;2023-05-10T10:20:55;7.10;;;2.60;;
79365;SDS011;68833;53.160;17.920;2023-05-10T10:23:23;6.70;;;2.30;;
79365;SDS011;68833;53.160;17.920;2023-05-10T10:25:50;2.80;;;2.20;;
79365;SDS011;68833;53.160;17.920;2023-05-10T10:28:25;4.10;;;2.40;;
79365;SDS011;68833;53.160;17.920;2023-05-10T10:31:01;4.10;;;2.80;;
79365;SDS011;68833;53.160;17.920;2023-05-10T10:34:00;5.50;;;2.90;;
79365;SDS011;68833;53.160;17.920;2023-05-10T10:36:46;4.20;;;2.20;;
79365;SDS011;68833;53.160;17.920;2023-05-10T10:39:16;3.30;;;2.20;;
79365;SDS011;68833;53.160;17.920;2023-05-10T10:49:30;4.00;;;2.80;;
79365;SDS011;68833;53.160;17.920;2023-05-10T10:57:52;2.90;;;2.40;;
79365;SDS011;68833;53.160;17.920;2023-05-10T11:00:27;3.10;;;2.20;;
79365;SDS011;68833;53.160;17.920;2023-05-10T11:08:16;5.10;;;2.40;;
79365;SDS011;68833;53.160;17.920;2023-05-10T11:13:31;6.30;;;3.00;;
79365;SDS011;68833;53.160;17.920;2023-05-10T11:16:19;3.80;;;2.10;;
79365;SDS011;68833;53.160;17.920;2023-05-10T11:19:03;3.30;;;1.90;;
79365;SDS011;68833;53.160;17.920;2023-05-10T11:21:34;6.10;;;2.50;;
79365;SDS011;68833;53.160;17.920;2023-05-10T11:24:19;4.80;;;3.10;;
79365;SDS011;68833;53.160;17.920;2023-05-10T11:26:49;3.80;;;1.80;;
79365;SDS011;68833;53.160;17.920;2023-05-10T11:29:17;3.90;;;2.50;;
79365;SDS011;68833;53.160;17.920;2023-05-10T11:31:45;3.90;;;2.20;;
79365;SDS011;68833;53.160;17.920;2023-05-10T11:34:29;3.30;;;2.40;;
79365;SDS011;68833;53.160;17.920;2023-05-10T11:36:59;8.60;;;2.90;;
79365;SDS011;68833;53.160;17.920;2023-05-10T11:39:28;3.70;;;2.80;;
79365;SDS011;68833;53.160;17.920;2023-05-10T11:41:56;6.10;;;2.50;;
79365;SDS011;68833;53.160;17.920;2023-05-10T11:44:24;3.30;;;2.30;;
79365;SDS011;68833;53.160;17.920;2023-05-10T11:46:57;8.80;;;2.80;;
79365;SDS011;68833;53.160;17.920;2023-05-10T11:49:28;5.50;;;3.00;;
79365;SDS011;68833;53.160;17.920;2023-05-10T11:52:05;6.10;;;2.90;;
79365;SDS011;68833;53.160;17.920;2023-05-10T11:54:33;4.60;;;2.90;;
79365;SDS011;68833;53.160;17.920;2023-05-10T11:57:04;6.70;;;2.60;;
79365;SDS011;68833;53.160;17.920;2023-05-10T11:59:31;3.70;;;2.30;;
79365;SDS011;68833;53.160;17.920;2023-05-10T12:01:58;14.20;;;9.70;;
79365;SDS011;68833;53.160;17.920;2023-05-10T12:04:25;4.70;;;2.40;;
79365;SDS011;68833;53.160;17.920;2023-05-10T12:06:54;5.00;;;2.40;;
79365;SDS011;68833;53.160;17.920;2023-05-10T12:09:22;4.60;;;2.20;;
79365;SDS011;68833;53.160;17.920;2023-05-10T12:11:48;3.80;;;1.70;;
79365;SDS011;68833;53.160;17.920;2023-05-10T12:14:16;4.30;;;2.00;;
79365;SDS011;68833;53.160;17.920;2023-05-10T12:16:43;3.00;;;2.10;;
79365;SDS011;68833;53.160;17.920;2023-05-10T12:19:10;4.20;;;2.20;;
79365;SDS011;68833;53.160;17.920;2023-05-10T12:21:37;3.30;;;2.30;;
79365;SDS011;68833;53.160;17.920;2023-05-10T12:24:05;5.30;;;2.40;;
79365;SDS011;68833;53.160;17.920;2023-05-10T12:26:32;5.90;;;2.70;;
79365;SDS011;68833;53.160;17.920;2023-05-10T12:29:18;5.10;;;1.80;;
79365;SDS011;68833;53.160;17.920;2023-05-10T12:31:52;6.60;;;2.70;;
79365;SDS011;68833;53.160;17.920;2023-05-10T12:36:52;6.50;;;3.30;;
79365;SDS011;68833;53.160;17.920;2023-05-10T12:39:19;4.20;;;2.30;;
79365;SDS011;68833;53.160;17.920;2023-05-10T12:41:46;4.90;;;2.30;;
79365;SDS011;68833;53.160;17.920;2023-05-10T12:44:14;7.90;;;2.60;;
79365;SDS011;68833;53.160;17.920;2023-05-10T12:46:41;7.20;;;2.10;;
79365;SDS011;68833;53.160;17.920;2023-05-10T12:49:08;5.80;;;2.40;;
79365;SDS011;68833;53.160;17.920;2023-05-10T12:51:34;5.40;;;2.30;;
79365;SDS011;68833;53.160;17.920;2023-05-10T12:54:04;5.00;;;2.30;;
79365;SDS011;68833;53.160;17.920;2023-05-10T12:56:31;4.30;;;2.40;;
79365;SDS011;68833;53.160;17.920;2023-05-10T12:58:58;6.70;;;2.00;;
79365;SDS011;68833;53.160;17.920;2023-05-10T13:01:25;6.60;;;2.50;;
79365;SDS011;68833;53.160;17.920;2023-05-10T13:03:52;7.00;;;1.80;;
79365;SDS011;68833;53.160;17.920;2023-05-10T13:06:19;22.50;;;12.90;;
79365;SDS011;68833;53.160;17.920;2023-05-10T13:08:46;5.60;;;2.70;;
79365;SDS011;68833;53.160;17.920;2023-05-10T13:11:13;5.00;;;2.30;;
79365;SDS011;68833;53.160;17.920;2023-05-10T13:13:43;4.30;;;1.70;;
79365;SDS011;68833;53.160;17.920;2023-05-10T13:16:11;4.00;;;2.40;;
79365;SDS011;68833;53.160;17.920;2023-05-10T13:18:38;7.80;;;3.90;;
79365;SDS011;68833;53.160;17.920;2023-05-10T13:21:05;5.80;;;2.80;;
79365;SDS011;68833;53.160;17.920;2023-05-10T13:23:32;6.20;;;2.90;;
79365;SDS011;68833;53.160;17.920;2023-05-10T13:25:59;23.50;;;13.90;;
79365;SDS011;68833;53.160;17.920;2023-05-10T13:28:26;13.00;;;4.90;;
79365;SDS011;68833;53.160;17.920;2023-05-10T13:30:53;8.00;;;3.60;;
79365;SDS011;68833;53.160;17.920;2023-05-10T13:33:20;6.70;;;2.90;;
79365;SDS011;68833;53.160;17.920;2023-05-10T13:35:47;5.50;;;2.60;;
79365;SDS011;68833;53.160;17.920;2023-05-10T13:38:14;7.30;;;2.60;;
79365;SDS011;68833;53.160;17.920;2023-05-10T13:40:41;8.80;;;4.10;;
79365;SDS011;68833;53.160;17.920;2023-05-10T13:43:08;8.80;;;4.20;;
79365;SDS011;68833;53.160;17.920;2023-05-10T13:45:35;5.40;;;3.30;;
79365;SDS011;68833;53.160;17.920;2023-05-10T13:48:02;5.90;;;4.60;;
79365;SDS011;68833;53.160;17.920;2023-05-10T13:50:29;5.40;;;2.80;;
79365;SDS011;68833;53.160;17.920;2023-05-10T13:52:56;4.50;;;3.10;;
79365;SDS011;68833;53.160;17.920;2023-05-10T13:55:23;6.80;;;3.50;;
79365;SDS011;68833;53.160;17.920;2023-05-10T13:57:50;10.40;;;3.70;;
79365;SDS011;68833;53.160;17.920;2023-05-10T14:00:17;4.60;;;2.70;;
79365;SDS011;68833;53.160;17.920;2023-05-10T14:02:44;5.10;;;2.60;;
79365;SDS011;68833;53.160;17.920;2023-05-10T14:05:11;6.30;;;3.50;;
79365;SDS011;68833;53.160;17.920;2023-05-10T14:07:38;5.10;;;2.50;;
79365;SDS011;68833;53.160;17.920;2023-05-10T14:10:06;3.90;;;2.30;;
79365;SDS011;68833;53.160;17.920;2023-05-10T14:12:33;9.00;;;2.70;;
79365;SDS011;68833;53.160;17.920;2023-05-10T14:15:00;9.40;;;2.90;;
79365;SDS011;68833;53.160;17.920;2023-05-10T14:17:27;6.30;;;3.00;;
79365;SDS011;68833;53.160;17.920;2023-05-10T14:19:55;5.00;;;2.60;;
79365;SDS011;68833;53.160;17.920;2023-05-10T14:22:22;4.60;;;2.40;;
79365;SDS011;68833;53.160;17.920;2023-05-10T14:24:49;9.00;;;3.00;;
79365;SDS011;68833;53.160;17.920;2023-05-10T14:27:16;6.40;;;2.70;;
79365;SDS011;68833;53.160;17.920;2023-05-10T14:29:43;6.70;;;2.80;;
79365;SDS011;68833;53.160;17.920;2023-05-10T14:32:10;4.50;;;2.80;;
79365;SDS011;68833;53.160;17.920;2023-05-10T14:34:37;7.40;;;2.60;;
79365;SDS011;68833;53.160;17.920;2023-05-10T14:37:04;5.80;;;2.20;;
79365;SDS011;68833;53.160;17.920;2023-05-10T14:39:34;4.70;;;2.90;;
79365;SDS011;68833;53.160;17.920;2023-05-10T14:42:01;5.70;;;2.70;;
79365;SDS011;68833;53.160;17.920;2023-05-10T14:44:29;6.20;;;2.80;;
79365;SDS011;68833;53.160;17.920;2023-05-10T14:46:56;6.40;;;3.00;;
79365;SDS011;68833;53.160;17.920;2023-05-10T14:49:23;7.00;;;1.90;;
79365;SDS011;68833;53.160;17.920;2023-05-10T14:54:19;5.60;;;2.00;;
79365;SDS011;68833;53.160;17.920;2023-05-10T14:56:46;3.20;;;2.30;;
79365;SDS011;68833;53.160;17.920;2023-05-10T14:59:15;8.00;;;2.60;;
79365;SDS011;68833;53.160;17.920;2023-05-10T15:01:42;5.80;;;2.70;;
79365;SDS011;68833;53.160;17.920;2023-05-10T15:04:09;3.80;;;2.50;;
79365;SDS011;68833;53.160;17.920;2023-05-10T15:06:36;3.30;;;2.30;;
79365;SDS011;68833;53.160;17.920;2023-05-10T15:09:03;4.30;;;2.60;;
79365;SDS011;68833;53.160;17.920;2023-05-10T15:11:30;5.80;;;2.40;;
79365;SDS011;68833;53.160;17.920;2023-05-10T15:13:57;4.80;;;2.30;;
79365;SDS011;68833;53.160;17.920;2023-05-10T15:16:24;6.00;;;2.30;;
79365;SDS011;68833;53.160;17.920;2023-05-10T15:18:51;4.50;;;2.70;;
79365;SDS011;68833;53.160;17.920;2023-05-10T15:21:18;5.40;;;2.40;;
79365;SDS011;68833;53.160;17.920;2023-05-10T15:23:45;5.30;;;2.70;;
79365;SDS011;68833;53.160;17.920;2023-05-10T15:26:12;4.00;;;1.90;;
79365;SDS011;68833;53.160;17.920;2023-05-10T15:28:39;5.30;;;2.80;;
79365;SDS011;68833;53.160;17.920;2023-05-10T15:31:06;5.50;;;3.10;;
79365;SDS011;68833;53.160;17.920;2023-05-10T15:33:33;5.00;;;2.60;;
79365;SDS011;68833;53.160;17.920;2023-05-10T15:36:00;4.30;;;2.10;;
79365;SDS011;68833;53.160;17.920;2023-05-10T15:38:27;7.80;;;3.40;;
79365;SDS011;68833;53.160;17.920;2023-05-10T15:40:55;4.70;;;2.80;;
79365;SDS011;68833;53.160;17.920;2023-05-10T15:43:23;6.30;;;2.20;;
79365;SDS011;68833;53.160;17.920;2023-05-10T15:45:50;5.10;;;2.70;;